Time,TemperatureF,DewpointF,PressureIn,WindDirection,WindDirectionDegrees,WindSpeedMPH,WindSpeedGustMPH,Humidity,HourlyPrecipIn,Conditions,Clouds,dailyrainin,SoftwareType,DateUTC
2013-07-25 00:00:00,83.5,80.6,29.90,WSW,241,7.0,18.0,91,0.00,,,0.00,Wunderground v.1.15,2013-07-25 04:00:00,
2013-07-25 00:05:00,83.5,80.6,29.90,WSW,240,7.0,18.0,91,0.00,,,0.00,Wunderground v.1.15,2013-07-25 04:05:00,
2013-07-25 00:10:00,83.4,80.2,29.90,WSW,252,7.0,7.0,90,0.00,,,0.00,Wunderground v.1.15,2013-07-25 04:10:00,
2013-07-25 00:20:00,80.1,76.9,29.91,NNE,29,11.0,20.0,90,0.00,,,0.00,Wunderground v.1.15,2013-07-25 04:20:00,
2013-07-25 00:25:00,79.4,76.5,29.91,NNE,26,18.0,20.0,91,0.00,,,0.00,Wunderground v.1.15,2013-07-25 04:25:00,
2013-07-25 00:30:00,79.0,76.1,29.91,NNE,29,19.0,19.0,91,0.00,,,0.00,Wunderground v.1.15,2013-07-25 04:30:00,
2013-07-25 00:35:00,78.8,75.6,29.91,NE,39,17.0,19.0,90,0.00,,,0.00,Wunderground v.1.15,2013-07-25 04:35:00,
2013-07-25 00:40:00,79.0,76.1,29.92,NE,46,17.0,17.0,91,0.00,,,0.00,Wunderground v.1.15,2013-07-25 04:40:00,
2013-07-25 00:50:00,78.8,75.6,29.92,NE,55,18.0,18.0,90,0.00,,,0.00,Wunderground v.1.15,2013-07-25 04:50:00,
2013-07-25 00:55:00,78.9,75.7,29.92,NE,40,16.0,18.0,90,0.00,,,0.00,Wunderground v.1.15,2013-07-25 04:55:00,
2013-07-25 01:05:00,79.2,75.7,29.91,NE,39,13.0,18.0,89,0.00,,,0.00,Wunderground v.1.15,2013-07-25 05:05:00,
2013-07-25 01:10:00,79.3,75.8,29.91,ENE,60,13.0,18.0,89,0.00,,,0.00,Wunderground v.1.15,2013-07-25 05:10:00,
2013-07-25 01:15:00,79.4,76.2,29.90,ENE,58,12.0,18.0,90,0.00,,,0.00,Wunderground v.1.15,2013-07-25 05:15:00,
2013-07-25 01:25:00,79.6,76.1,29.90,NE,53,14.0,18.0,89,0.00,,,0.00,Wunderground v.1.15,2013-07-25 05:25:00,
2013-07-25 01:30:00,79.7,75.8,29.90,ENE,57,15.0,18.0,88,0.00,,,0.00,Wunderground v.1.15,2013-07-25 05:30:00,
2013-07-25 01:35:00,79.9,76.4,29.90,ENE,59,14.0,18.0,89,0.00,,,0.00,Wunderground v.1.15,2013-07-25 05:35:00,
2013-07-25 01:45:00,80.1,76.6,29.90,ENE,62,13.0,18.0,89,0.00,,,0.00,Wunderground v.1.15,2013-07-25 05:45:00,
2013-07-25 01:50:00,80.0,76.5,29.89,ENE,67,13.0,13.0,89,0.00,,,0.00,Wunderground v.1.15,2013-07-25 05:50:00,
2013-07-25 01:55:00,79.8,76.3,29.89,East,79,11.0,18.0,89,0.00,,,0.00,Wunderground v.1.15,2013-07-25 05:55:00,
2013-07-25 02:05:00,79.8,75.9,29.89,ENE,73,10.0,18.0,88,0.00,,,0.00,Wunderground v.1.15,2013-07-25 06:05:00,
2013-07-25 02:10:00,80.1,76.2,29.88,ENE,73,10.0,18.0,88,0.00,,,0.00,Wunderground v.1.15,2013-07-25 06:10:00,
2013-07-25 02:20:00,79.9,76.4,29.88,ENE,78,10.0,10.0,89,0.00,,,0.00,Wunderground v.1.15,2013-07-25 06:20:00,
2013-07-25 02:25:00,79.9,76.4,29.87,NE,56,8.0,18.0,89,0.00,,,0.00,Wunderground v.1.15,2013-07-25 06:25:00,
2013-07-25 02:35:00,80.5,77.0,29.88,NNE,19,9.0,18.0,89,0.00,,,0.00,Wunderground v.1.15,2013-07-25 06:35:00,
2013-07-25 02:40:00,80.2,76.3,29.88,NNE,23,10.0,10.0,88,0.00,,,0.00,Wunderground v.1.15,2013-07-25 06:40:00,
2013-07-25 02:45:00,80.2,76.7,29.88,NNE,28,9.0,18.0,89,0.00,,,0.00,Wunderground v.1.15,2013-07-25 06:45:00,
2013-07-25 02:50:00,80.0,76.5,29.88,NNE,33,9.0,9.0,89,0.00,,,0.00,Wunderground v.1.15,2013-07-25 06:50:00,
2013-07-25 03:00:00,80.2,76.3,29.88,NNE,33,9.0,18.0,88,0.00,,,0.00,Wunderground v.1.15,2013-07-25 07:00:00,
2013-07-25 03:05:00,80.2,76.3,29.88,NE,37,9.0,18.0,88,0.00,,,0.00,Wunderground v.1.15,2013-07-25 07:05:00,
2013-07-25 03:15:00,80.4,76.5,29.87,NNE,13,9.0,18.0,88,0.00,,,0.00,Wunderground v.1.15,2013-07-25 07:15:00,
2013-07-25 03:20:00,80.1,76.6,29.88,North,360,7.0,7.0,89,0.00,,,0.00,Wunderground v.1.15,2013-07-25 07:20:00,
2013-07-25 03:25:00,79.8,76.3,29.87,NNE,19,5.0,18.0,89,0.00,,,0.00,Wunderground v.1.15,2013-07-25 07:25:00,
2013-07-25 03:35:00,79.7,76.5,29.87,NNE,16,2.0,7.0,90,0.00,,,0.00,Wunderground v.1.15,2013-07-25 07:35:00,
2013-07-25 03:40:00,79.8,76.6,29.86,NNE,19,4.0,18.0,90,0.00,,,0.00,Wunderground v.1.15,2013-07-25 07:40:00,
2013-07-25 03:50:00,79.8,76.3,29.87,North,5,4.0,4.0,89,0.00,,,0.00,Wunderground v.1.15,2013-07-25 07:50:00,
2013-07-25 03:55:00,79.9,76.0,29.88,NW,326,1.0,18.0,88,0.00,,,0.00,Wunderground v.1.15,2013-07-25 07:55:00,
2013-07-25 04:05:00,79.7,74.8,29.89,NW,304,5.0,18.0,85,0.00,,,0.00,Wunderground v.1.15,2013-07-25 08:05:00,
2013-07-25 04:10:00,79.6,73.6,29.89,West,276,10.0,18.0,82,0.00,,,0.00,Wunderground v.1.15,2013-07-25 08:10:00,
2013-07-25 04:15:00,79.8,74.2,29.89,NW,309,13.0,18.0,83,0.00,,,0.00,Wunderground v.1.15,2013-07-25 08:15:00,
2013-07-25 04:25:00,77.8,74.0,29.90,NW,306,11.0,18.0,88,0.20,,,0.05,Wunderground v.1.15,2013-07-25 08:25:00,
2013-07-25 04:30:00,77.3,74.1,29.90,NNW,331,9.0,9.0,90,0.12,,,0.06,Wunderground v.1.15,2013-07-25 08:30:00,
2013-07-25 04:40:00,77.1,74.6,29.89,WNW,296,5.0,5.0,92,0.05,,,0.06,Wunderground v.1.15,2013-07-25 08:40:00,
2013-07-25 04:50:00,77.1,75.2,29.89,West,280,5.0,5.0,94,0.04,,,0.07,Wunderground v.1.15,2013-07-25 08:50:00,
2013-07-25 05:00:00,77.4,75.9,29.89,WNW,290,6.0,18.0,95,0.00,,,0.07,Wunderground v.1.15,2013-07-25 09:00:00,
2013-07-25 05:05:00,77.5,76.0,29.89,WNW,288,6.0,18.0,95,0.00,,,0.07,Wunderground v.1.15,2013-07-25 09:05:00,
2013-07-25 05:10:00,77.5,76.0,29.89,WNW,289,3.0,3.0,95,0.00,,,0.07,Wunderground v.1.15,2013-07-25 09:10:00,
2013-07-25 05:20:00,77.3,75.8,29.88,NW,324,0.0,18.0,95,0.00,,,0.07,Wunderground v.1.15,2013-07-25 09:20:00,
2013-07-25 05:25:00,77.2,75.7,29.88,NW,312,0.0,18.0,95,0.00,,,0.07,Wunderground v.1.15,2013-07-25 09:25:00,
2013-07-25 05:35:00,77.3,75.8,29.88,NW,308,1.0,18.0,95,0.00,,,0.07,Wunderground v.1.15,2013-07-25 09:35:00,
2013-07-25 05:40:00,77.2,75.3,29.89,NW,313,1.0,1.0,94,0.00,,,0.07,Wunderground v.1.15,2013-07-25 09:40:00,
2013-07-25 05:50:00,77.4,75.5,29.90,NW,311,1.0,1.0,94,0.00,,,0.07,Wunderground v.1.15,2013-07-25 09:50:00,
2013-07-25 05:55:00,77.6,75.7,29.90,NW,320,2.0,3.0,94,0.00,,,0.07,Wunderground v.1.15,2013-07-25 09:55:00,
2013-07-25 06:00:00,77.7,75.8,29.90,NW,306,3.0,3.0,94,0.00,,,0.07,Wunderground v.1.15,2013-07-25 10:00:00,
2013-07-25 06:10:00,78.1,76.2,29.90,WNW,300,3.0,18.0,94,0.00,,,0.07,Wunderground v.1.15,2013-07-25 10:10:00,
2013-07-25 06:15:00,78.2,76.3,29.90,NW,310,4.0,18.0,94,0.00,,,0.07,Wunderground v.1.15,2013-07-25 10:15:00,
2013-07-25 06:20:00,78.3,76.4,29.90,NW,309,5.0,18.0,94,0.00,,,0.07,Wunderground v.1.15,2013-07-25 10:20:00,
2013-07-25 06:30:00,78.5,76.3,29.91,North,355,3.0,3.0,93,0.00,,,0.07,Wunderground v.1.15,2013-07-25 10:30:00,
2013-07-25 06:35:00,78.4,76.2,29.91,NW,318,3.0,5.0,93,0.00,,,0.07,Wunderground v.1.15,2013-07-25 10:35:00,
2013-07-25 06:40:00,78.0,75.8,29.91,NW,313,5.0,18.0,93,0.00,,,0.07,Wunderground v.1.15,2013-07-25 10:40:00,
2013-07-25 06:50:00,77.5,75.0,29.91,NW,307,9.0,18.0,92,0.00,,,0.07,Wunderground v.1.15,2013-07-25 10:50:00,
2013-07-25 06:55:00,77.4,74.6,29.91,NW,315,9.0,18.0,91,0.00,,,0.07,Wunderground v.1.15,2013-07-25 10:55:00,
2013-07-25 07:05:00,77.4,74.2,29.91,WNW,302,8.0,18.0,90,0.00,,,0.07,Wunderground v.1.15,2013-07-25 11:05:00,
2013-07-25 07:10:00,77.3,74.1,29.91,NW,304,7.0,7.0,90,0.00,,,0.07,Wunderground v.1.15,2013-07-25 11:10:00,
2013-07-25 07:20:00,77.3,73.8,29.91,WNW,303,5.0,18.0,89,0.00,,,0.07,Wunderground v.1.15,2013-07-25 11:20:00,
2013-07-25 07:25:00,77.4,73.9,29.91,NW,309,7.0,18.0,89,0.00,,,0.07,Wunderground v.1.15,2013-07-25 11:25:00,
2013-07-25 07:30:00,77.5,74.0,29.91,NW,315,7.0,7.0,89,0.00,,,0.07,Wunderground v.1.15,2013-07-25 11:30:00,
2013-07-25 07:40:00,77.6,74.1,29.92,NW,309,8.0,18.0,89,0.00,,,0.07,Wunderground v.1.15,2013-07-25 11:40:00,
2013-07-25 07:45:00,77.6,74.1,29.93,NW,321,8.0,18.0,89,0.00,,,0.07,Wunderground v.1.15,2013-07-25 11:45:00,
2013-07-25 07:50:00,77.3,73.8,29.93,NW,323,8.0,8.0,89,0.00,,,0.07,Wunderground v.1.15,2013-07-25 11:50:00,
2013-07-25 07:55:00,76.9,73.1,29.93,NNW,346,7.0,18.0,88,0.00,,,0.07,Wunderground v.1.15,2013-07-25 11:55:00,
2013-07-25 08:05:00,76.6,73.1,29.93,NNW,348,4.0,18.0,89,0.00,,,0.07,Wunderground v.1.15,2013-07-25 12:05:00,
2013-07-25 08:10:00,76.5,73.3,29.93,North,360,5.0,18.0,90,0.00,,,0.07,Wunderground v.1.15,2013-07-25 12:10:00,
2013-07-25 08:20:00,76.4,73.2,29.93,North,355,6.0,6.0,90,0.00,,,0.07,Wunderground v.1.15,2013-07-25 12:20:00,
2013-07-25 08:25:00,76.5,73.3,29.93,NNW,329,6.0,18.0,90,0.00,,,0.07,Wunderground v.1.15,2013-07-25 12:25:00,
2013-07-25 08:35:00,76.5,73.7,29.94,NNW,327,7.0,18.0,91,0.00,,,0.07,Wunderground v.1.15,2013-07-25 12:35:00,
2013-07-25 08:40:00,76.5,74.0,29.94,North,349,7.0,18.0,92,0.00,,,0.07,Wunderground v.1.15,2013-07-25 12:40:00,
2013-07-25 08:45:00,76.6,74.1,29.94,NW,313,7.0,18.0,92,0.00,,,0.07,Wunderground v.1.15,2013-07-25 12:45:00,
2013-07-25 08:55:00,77.0,74.5,29.95,NW,323,7.0,18.0,92,0.00,,,0.07,Wunderground v.1.15,2013-07-25 12:55:00,
2013-07-25 09:00:00,77.2,74.7,29.95,NW,320,7.0,18.0,92,0.00,,,0.07,Wunderground v.1.15,2013-07-25 13:00:00,
2013-07-25 09:05:00,77.4,74.6,29.95,NNW,347,7.0,18.0,91,0.00,,,0.07,Wunderground v.1.15,2013-07-25 13:05:00,
2013-07-25 09:15:00,77.6,74.8,29.95,NW,310,5.0,18.0,91,0.00,,,0.07,Wunderground v.1.15,2013-07-25 13:15:00,
2013-07-25 09:20:00,77.7,74.9,29.95,NNW,328,7.0,18.0,91,0.00,,,0.07,Wunderground v.1.15,2013-07-25 13:20:00,
2013-07-25 09:25:00,78.0,75.2,29.95,NNW,335,6.0,18.0,91,0.00,,,0.07,Wunderground v.1.15,2013-07-25 13:25:00,
2013-07-25 09:35:00,78.7,75.5,29.95,NW,313,4.0,8.0,90,0.00,,,0.07,Wunderground v.1.15,2013-07-25 13:35:00,
2013-07-25 09:40:00,79.3,76.1,29.95,NNW,336,4.0,4.0,90,0.00,,,0.07,Wunderground v.1.15,2013-07-25 13:40:00,
2013-07-25 09:50:00,80.4,76.5,29.95,NNW,334,1.0,1.0,88,0.00,,,0.07,Wunderground v.1.15,2013-07-25 13:50:00,
2013-07-25 09:55:00,80.9,76.7,29.96,North,355,0.0,18.0,87,0.00,,,0.07,Wunderground v.1.15,2013-07-25 13:55:00,
2013-07-25 10:05:00,81.2,76.3,29.96,NNW,336,4.0,18.0,85,0.00,,,0.07,Wunderground v.1.15,2013-07-25 14:05:00,
2013-07-25 10:10:00,81.1,76.2,29.96,North,360,4.0,18.0,85,0.00,,,0.07,Wunderground v.1.15,2013-07-25 14:10:00,
2013-07-25 10:20:00,81.5,76.6,29.96,North,5,3.0,3.0,85,0.00,,,0.07,Wunderground v.1.15,2013-07-25 14:20:00,
2013-07-25 10:25:00,81.4,75.7,29.97,NNE,12,4.0,5.0,83,0.00,,,0.07,Wunderground v.1.15,2013-07-25 14:25:00,
2013-07-25 10:30:00,81.0,75.7,29.97,NNE,30,4.0,18.0,84,0.00,,,0.07,Wunderground v.1.15,2013-07-25 14:30:00,
2013-07-25 10:35:00,80.6,75.7,29.97,NNE,18,5.0,18.0,85,0.00,,,0.07,Wunderground v.1.15,2013-07-25 14:35:00,
2013-07-25 10:45:00,80.8,75.2,29.98,NNE,14,1.0,18.0,83,0.00,,,0.07,Wunderground v.1.15,2013-07-25 14:45:00,
2013-07-25 10:50:00,80.5,75.2,29.98,NE,41,1.0,18.0,84,0.00,,,0.07,Wunderground v.1.15,2013-07-25 14:50:00,
2013-07-25 10:55:00,80.1,74.8,29.98,NE,36,4.0,18.0,84,0.00,,,0.07,Wunderground v.1.15,2013-07-25 14:55:00,
2013-07-25 11:05:00,80.0,75.1,29.98,NNE,22,6.0,18.0,85,0.00,,,0.07,Wunderground v.1.15,2013-07-25 15:05:00,
2013-07-25 11:10:00,80.0,75.1,29.98,NNE,16,8.0,8.0,85,0.00,,,0.07,Wunderground v.1.15,2013-07-25 15:10:00,
2013-07-25 11:20:00,80.5,75.6,29.98,NNE,26,8.0,8.0,85,0.00,,,0.07,Wunderground v.1.15,2013-07-25 15:20:00,
2013-07-25 11:25:00,80.2,74.9,29.99,NNE,24,7.0,18.0,84,0.00,,,0.07,Wunderground v.1.15,2013-07-25 15:25:00,
2013-07-25 11:35:00,80.2,75.3,29.99,NNE,26,5.0,18.0,85,0.00,,,0.07,Wunderground v.1.15,2013-07-25 15:35:00,
2013-07-25 11:40:00,80.5,75.2,29.99,North,9,4.0,18.0,84,0.00,,,0.07,Wunderground v.1.15,2013-07-25 15:40:00,
2013-07-25 11:45:00,81.2,75.9,29.99,North,5,4.0,18.0,84,0.00,,,0.07,Wunderground v.1.15,2013-07-25 15:45:00,
2013-07-25 11:55:00,82.1,76.4,29.99,NNE,13,1.0,18.0,83,0.00,,,0.07,Wunderground v.1.15,2013-07-25 15:55:00,
2013-07-25 12:00:00,82.0,76.0,29.99,North,360,1.0,1.0,82,0.00,,,0.07,Wunderground v.1.15,2013-07-25 16:00:00,
2013-07-25 12:10:00,82.6,76.2,29.99,North,5,0.0,18.0,81,0.00,,,0.07,Wunderground v.1.15,2013-07-25 16:10:00,
2013-07-25 12:15:00,82.6,75.8,29.99,NNE,15,0.0,18.0,80,0.00,,,0.07,Wunderground v.1.15,2013-07-25 16:15:00,
2013-07-25 12:20:00,82.1,75.3,30.00,NNE,16,0.0,18.0,80,0.00,,,0.07,Wunderground v.1.15,2013-07-25 16:20:00,
2013-07-25 12:25:00,82.3,76.3,30.00,North,5,0.0,18.0,82,0.00,,,0.07,Wunderground v.1.15,2013-07-25 16:25:00,
2013-07-25 12:35:00,84.2,78.1,30.00,WNW,290,0.0,18.0,82,0.00,,,0.07,Wunderground v.1.15,2013-07-25 16:35:00,
2013-07-25 12:40:00,85.5,78.2,30.00,WNW,290,2.0,18.0,79,0.00,,,0.07,Wunderground v.1.15,2013-07-25 16:40:00,
2013-07-25 12:50:00,86.7,79.0,30.00,NW,304,7.0,7.0,78,0.00,,,0.07,Wunderground v.1.15,2013-07-25 16:50:00,
2013-07-25 12:55:00,87.1,79.0,30.00,WNW,283,7.0,18.0,77,0.00,,,0.07,Wunderground v.1.15,2013-07-25 16:55:00,
2013-07-25 13:05:00,87.2,78.7,30.00,WNW,284,8.0,10.0,76,0.00,,,0.07,Wunderground v.1.15,2013-07-25 17:05:00,
2013-07-25 13:10:00,87.2,78.3,30.00,West,275,8.0,18.0,75,0.00,,,0.07,Wunderground v.1.15,2013-07-25 17:10:00,
2013-07-25 13:20:00,87.2,78.7,30.00,WNW,284,9.0,18.0,76,0.00,,,0.07,Wunderground v.1.15,2013-07-25 17:20:00,
2013-07-25 13:25:00,87.4,78.5,30.00,West,265,10.0,18.0,75,0.00,,,0.07,Wunderground v.1.15,2013-07-25 17:25:00,
2013-07-25 13:30:00,87.7,79.2,30.00,West,274,9.0,9.0,76,0.00,,,0.07,Wunderground v.1.15,2013-07-25 17:30:00,
2013-07-25 13:35:00,87.6,78.7,30.00,SW,236,9.0,10.0,75,0.00,,,0.07,Wunderground v.1.15,2013-07-25 17:35:00,
2013-07-25 13:45:00,85.4,78.1,30.00,WSW,242,10.0,12.0,79,0.00,,,0.07,Wunderground v.1.15,2013-07-25 17:45:00,
2013-07-25 13:50:00,85.7,78.4,30.00,WSW,257,9.0,18.0,79,0.00,,,0.07,Wunderground v.1.15,2013-07-25 17:50:00,
2013-07-25 14:00:00,85.6,77.9,30.00,West,271,11.0,11.0,78,0.00,,,0.07,Wunderground v.1.15,2013-07-25 18:00:00,
2013-07-25 14:05:00,86.5,78.8,30.00,West,277,10.0,18.0,78,0.00,,,0.07,Wunderground v.1.15,2013-07-25 18:05:00,
2013-07-25 14:10:00,87.2,79.1,30.00,WNW,293,9.0,18.0,77,0.00,,,0.07,Wunderground v.1.15,2013-07-25 18:10:00,
2013-07-25 14:20:00,88.0,78.7,29.99,WNW,299,10.0,18.0,74,0.00,,,0.07,Wunderground v.1.15,2013-07-25 18:20:00,
2013-07-25 14:25:00,87.6,79.1,29.99,WSW,258,11.0,18.0,76,0.00,,,0.07,Wunderground v.1.15,2013-07-25 18:25:00,
2013-07-25 14:35:00,87.9,78.6,29.99,WNW,296,10.0,18.0,74,0.00,,,0.07,Wunderground v.1.15,2013-07-25 18:35:00,
2013-07-25 14:40:00,88.4,79.1,29.99,West,273,10.0,18.0,74,0.00,,,0.07,Wunderground v.1.15,2013-07-25 18:40:00,
2013-07-25 14:50:00,88.7,78.9,29.99,West,278,10.0,10.0,73,0.00,,,0.07,Wunderground v.1.15,2013-07-25 18:50:00,
2013-07-25 14:55:00,88.8,78.6,29.98,WNW,288,9.0,11.0,72,0.00,,,0.07,Wunderground v.1.15,2013-07-25 18:55:00,
2013-07-25 15:00:00,88.8,78.6,29.99,West,275,10.0,18.0,72,0.00,,,0.07,Wunderground v.1.15,2013-07-25 19:00:00,
2013-07-25 15:10:00,89.0,78.4,29.98,WNW,294,11.0,18.0,71,0.00,,,0.07,Wunderground v.1.15,2013-07-25 19:10:00,
2013-07-25 15:15:00,89.2,78.6,29.98,West,279,11.0,18.0,71,0.00,,,0.07,Wunderground v.1.15,2013-07-25 19:15:00,
2013-07-25 15:20:00,89.2,78.6,29.99,WNW,296,10.0,18.0,71,0.00,,,0.07,Wunderground v.1.15,2013-07-25 19:20:00,
2013-07-25 15:25:00,89.0,78.4,29.98,West,275,10.0,18.0,71,0.00,,,0.07,Wunderground v.1.15,2013-07-25 19:25:00,
2013-07-25 15:35:00,89.4,78.8,29.98,WNW,285,9.0,11.0,71,0.00,,,0.07,Wunderground v.1.15,2013-07-25 19:35:00,
2013-07-25 15:40:00,89.3,79.1,29.98,WNW,288,9.0,9.0,72,0.00,,,0.07,Wunderground v.1.15,2013-07-25 19:40:00,
2013-07-25 15:50:00,89.2,78.6,29.97,WNW,288,10.0,18.0,71,0.00,,,0.07,Wunderground v.1.15,2013-07-25 19:50:00,
2013-07-25 15:55:00,89.3,78.7,29.97,West,279,10.0,18.0,71,0.00,,,0.07,Wunderground v.1.15,2013-07-25 19:55:00,
2013-07-25 16:05:00,89.5,78.4,29.97,West,277,11.0,18.0,70,0.00,,,0.07,Wunderground v.1.15,2013-07-25 20:05:00,
2013-07-25 16:10:00,89.7,78.6,29.97,WNW,291,10.0,10.0,70,0.00,,,0.07,Wunderground v.1.15,2013-07-25 20:10:00,
2013-07-25 16:20:00,89.8,78.3,29.97,West,267,11.0,11.0,69,0.00,,,0.07,Wunderground v.1.15,2013-07-25 20:20:00,
2013-07-25 16:25:00,89.8,78.3,29.97,West,281,11.0,18.0,69,0.00,,,0.07,Wunderground v.1.15,2013-07-25 20:25:00,
2013-07-25 16:35:00,89.6,79.4,29.97,West,272,11.0,18.0,72,0.00,,,0.07,Wunderground v.1.15,2013-07-25 20:35:00,
2013-07-25 16:40:00,88.8,79.0,29.97,WSW,254,10.0,18.0,73,0.00,,,0.07,Wunderground v.1.15,2013-07-25 20:40:00,
2013-07-25 16:45:00,88.5,79.6,29.97,West,270,11.0,18.0,75,0.00,,,0.07,Wunderground v.1.15,2013-07-25 20:45:00,
2013-07-25 16:55:00,88.9,79.5,29.96,West,279,11.0,18.0,74,0.00,,,0.07,Wunderground v.1.15,2013-07-25 20:55:00,
2013-07-25 17:00:00,89.0,80.0,29.96,WNW,293,11.0,11.0,75,0.00,,,0.07,Wunderground v.1.15,2013-07-25 21:00:00,
2013-07-25 17:10:00,88.9,80.3,29.97,West,271,11.0,11.0,76,0.00,,,0.07,Wunderground v.1.15,2013-07-25 21:10:00,
2013-07-25 17:15:00,88.9,80.3,29.97,West,271,11.0,12.0,76,0.00,,,0.07,Wunderground v.1.15,2013-07-25 21:15:00,
2013-07-25 17:20:00,88.7,80.2,29.97,West,273,10.0,18.0,76,0.00,,,0.07,Wunderground v.1.15,2013-07-25 21:20:00,
2013-07-25 17:25:00,88.8,79.8,29.97,West,279,10.0,18.0,75,0.00,,,0.07,Wunderground v.1.15,2013-07-25 21:25:00,
2013-07-25 17:35:00,88.2,79.3,29.96,West,270,14.0,14.0,75,0.00,,,0.07,Wunderground v.1.15,2013-07-25 21:35:00,
2013-07-25 17:40:00,88.0,78.7,29.96,West,279,14.0,14.0,74,0.00,,,0.07,Wunderground v.1.15,2013-07-25 21:40:00,
2013-07-25 17:50:00,88.1,79.2,29.96,WNW,283,13.0,18.0,75,0.00,,,0.07,Wunderground v.1.15,2013-07-25 21:50:00,
2013-07-25 17:55:00,88.2,79.3,29.96,West,274,13.0,18.0,75,0.00,,,0.07,Wunderground v.1.15,2013-07-25 21:55:00,
2013-07-25 18:05:00,87.6,79.5,29.96,WSW,258,12.0,18.0,77,0.00,,,0.07,Wunderground v.1.15,2013-07-25 22:05:00,
2013-07-25 18:10:00,87.5,79.8,29.96,WSW,242,12.0,18.0,78,0.00,,,0.07,Wunderground v.1.15,2013-07-25 22:10:00,
2013-07-25 18:20:00,87.2,79.9,29.96,West,269,11.0,18.0,79,0.00,,,0.07,Wunderground v.1.15,2013-07-25 22:20:00,
2013-07-25 18:25:00,87.4,80.1,29.96,West,277,10.0,18.0,79,0.00,,,0.07,Wunderground v.1.15,2013-07-25 22:25:00,
2013-07-25 18:30:00,87.6,79.9,29.96,West,271,10.0,18.0,78,0.00,,,0.07,Wunderground v.1.15,2013-07-25 22:30:00,
2013-07-25 18:35:00,87.8,79.7,29.96,West,275,11.0,18.0,77,0.00,,,0.07,Wunderground v.1.15,2013-07-25 22:35:00,
2013-07-25 18:45:00,87.6,79.5,29.96,West,273,12.0,18.0,77,0.00,,,0.07,Wunderground v.1.15,2013-07-25 22:45:00,
2013-07-25 18:50:00,87.5,79.4,29.96,WNW,290,12.0,12.0,77,0.00,,,0.07,Wunderground v.1.15,2013-07-25 22:50:00,
2013-07-25 19:00:00,87.4,79.3,29.96,West,277,12.0,18.0,77,0.00,,,0.07,Wunderground v.1.15,2013-07-25 23:00:00,
2013-07-25 19:05:00,87.3,79.6,29.96,WNW,292,12.0,18.0,78,0.00,,,0.07,Wunderground v.1.15,2013-07-25 23:05:00,
2013-07-25 19:10:00,87.0,78.9,29.96,WNW,284,11.0,18.0,77,0.00,,,0.07,Wunderground v.1.15,2013-07-25 23:10:00,
2013-07-25 19:20:00,86.5,78.8,29.96,West,273,12.0,12.0,78,0.00,,,0.07,Wunderground v.1.15,2013-07-25 23:20:00,
2013-07-25 19:25:00,86.6,79.7,29.96,West,279,11.0,18.0,80,0.00,,,0.07,Wunderground v.1.15,2013-07-25 23:25:00,
2013-07-25 19:35:00,86.3,78.6,29.96,WNW,288,11.0,18.0,78,0.00,,,0.07,Wunderground v.1.15,2013-07-25 23:35:00,
2013-07-25 19:40:00,86.3,78.6,29.97,WNW,286,11.0,11.0,78,0.00,,,0.07,Wunderground v.1.15,2013-07-25 23:40:00,
2013-07-25 19:50:00,86.5,79.2,29.97,NW,304,9.0,18.0,79,0.00,,,0.07,Wunderground v.1.15,2013-07-25 23:50:00,
2013-07-25 19:55:00,86.6,79.7,29.97,WNW,293,8.0,18.0,80,0.00,,,0.07,Wunderground v.1.15,2013-07-25 23:55:00,
2013-07-25 20:05:00,86.3,79.8,29.97,West,263,8.0,18.0,81,0.00,,,0.07,Wunderground v.1.15,2013-07-26 00:05:00,
2013-07-25 20:10:00,86.1,80.3,29.97,WSW,250,7.0,7.0,83,0.00,,,0.07,Wunderground v.1.15,2013-07-26 00:10:00,
2013-07-25 20:15:00,85.8,80.0,29.97,West,273,6.0,18.0,83,0.00,,,0.07,Wunderground v.1.15,2013-07-26 00:15:00,
2013-07-25 20:25:00,85.3,79.9,29.97,West,271,7.0,18.0,84,0.00,,,0.07,Wunderground v.1.15,2013-07-26 00:25:00,
2013-07-25 20:30:00,85.1,79.4,29.97,WNW,287,8.0,18.0,83,0.00,,,0.07,Wunderground v.1.15,2013-07-26 00:30:00,
2013-07-25 20:40:00,85.3,79.2,29.97,WNW,298,10.0,10.0,82,0.00,,,0.07,Wunderground v.1.15,2013-07-26 00:40:00,
2013-07-25 20:45:00,85.5,79.4,29.97,WNW,286,10.0,11.0,82,0.00,,,0.07,Wunderground v.1.15,2013-07-26 00:45:00,
2013-07-25 20:50:00,85.5,79.0,29.97,West,275,9.0,9.0,81,0.00,,,0.07,Wunderground v.1.15,2013-07-26 00:50:00,
2013-07-25 21:00:00,85.7,79.2,29.98,NW,311,8.0,8.0,81,0.00,,,0.07,Wunderground v.1.15,2013-07-26 01:00:00,
2013-07-25 21:05:00,85.5,77.5,29.97,NNW,336,9.0,9.0,77,0.00,,,0.07,Wunderground v.1.15,2013-07-26 01:05:00,
2013-07-25 21:10:00,85.8,77.4,29.97,NW,305,9.0,9.0,76,0.00,,,0.07,Wunderground v.1.15,2013-07-26 01:10:00,
2013-07-25 21:20:00,85.9,77.5,29.97,WNW,300,8.0,18.0,76,0.00,,,0.07,Wunderground v.1.15,2013-07-26 01:20:00,
2013-07-25 21:25:00,85.9,77.5,29.97,WNW,300,9.0,18.0,76,0.00,,,0.07,Wunderground v.1.15,2013-07-26 01:25:00,
2013-07-25 21:35:00,85.9,77.5,29.97,NW,323,8.0,18.0,76,0.00,,,0.07,Wunderground v.1.15,2013-07-26 01:35:00,
2013-07-25 21:40:00,85.8,77.4,29.98,NW,309,7.0,7.0,76,0.00,,,0.07,Wunderground v.1.15,2013-07-26 01:40:00,
2013-07-25 21:50:00,85.6,76.8,29.98,NW,316,7.0,18.0,75,0.00,,,0.07,Wunderground v.1.15,2013-07-26 01:50:00,
2013-07-25 21:55:00,85.7,77.3,29.98,NNW,327,8.0,18.0,76,0.00,,,0.07,Wunderground v.1.15,2013-07-26 01:55:00,
2013-07-25 22:05:00,85.5,76.7,29.98,NW,306,6.0,18.0,75,0.00,,,0.07,Wunderground v.1.15,2013-07-26 02:05:00,
2013-07-25 22:10:00,85.5,77.1,29.98,NW,309,6.0,18.0,76,0.00,,,0.07,Wunderground v.1.15,2013-07-26 02:10:00,
2013-07-25 22:20:00,85.4,77.0,29.98,NW,312,7.0,18.0,76,0.00,,,0.07,Wunderground v.1.15,2013-07-26 02:20:00,
2013-07-25 22:25:00,85.3,77.3,29.98,NW,324,7.0,18.0,77,0.00,,,0.07,Wunderground v.1.15,2013-07-26 02:25:00,
2013-07-25 22:35:00,85.2,77.2,29.98,NW,311,3.0,18.0,77,0.00,,,0.07,Wunderground v.1.15,2013-07-26 02:35:00,
2013-07-25 22:40:00,85.2,77.2,29.98,NW,315,2.0,2.0,77,0.00,,,0.07,Wunderground v.1.15,2013-07-26 02:40:00,
2013-07-25 22:45:00,85.0,77.0,29.99,NW,321,4.0,6.0,77,0.00,,,0.07,Wunderground v.1.15,2013-07-26 02:45:00,
2013-07-25 22:55:00,84.9,76.9,29.99,NNW,333,2.0,18.0,77,0.00,,,0.07,Wunderground v.1.15,2013-07-26 02:55:00,
2013-07-25 23:00:00,84.8,76.8,29.99,NNW,329,3.0,3.0,77,0.00,,,0.07,Wunderground v.1.15,2013-07-26 03:00:00,
2013-07-25 23:05:00,84.8,77.2,29.99,NNW,327,2.0,18.0,78,0.00,,,0.07,Wunderground v.1.15,2013-07-26 03:05:00,
2013-07-25 23:15:00,84.6,77.0,29.99,NW,314,1.0,18.0,78,0.00,,,0.07,Wunderground v.1.15,2013-07-26 03:15:00,
2013-07-25 23:20:00,84.5,76.9,29.99,NW,322,1.0,18.0,78,0.00,,,0.07,Wunderground v.1.15,2013-07-26 03:20:00,
2013-07-25 23:25:00,84.4,76.4,30.00,NW,321,3.0,18.0,77,0.00,,,0.07,Wunderground v.1.15,2013-07-26 03:25:00,
2013-07-25 23:35:00,84.3,76.7,30.00,NW,318,2.0,3.0,78,0.00,,,0.07,Wunderground v.1.15,2013-07-26 03:35:00,
2013-07-25 23:40:00,84.3,76.3,30.00,NW,319,4.0,4.0,77,0.00,,,0.07,Wunderground v.1.15,2013-07-26 03:40:00,
2013-07-25 23:50:00,84.2,76.6,29.99,NW,320,2.0,18.0,78,0.00,,,0.07,Wunderground v.1.15,2013-07-26 03:50:00,
2013-07-25 23:55:00,84.2,76.6,30.00,NW,317,3.0,18.0,78,0.00,,,0.07,Wunderground v.1.15,2013-07-26 03:55:00,